Time;durP1;ratioP1;P1;durP2;ratioP2;P2;SDS_P1;SDS_P2;PMS_P1;PMS_P2;Temp;Humidity;BMP_temperature;BMP_pressure;BME280_temperature;BME280_humidity;BME280_pressure;Samples;Min_cycle;Max_cycle;Signal;HPM_P1;HPM_P2
2023/05/19 00:04:01;;;;;;;5.60;3.25;;;;;;;11.53;62.66;100867.94;10261597;28;20047;-74
2023/05/19 00:09:08;;;;;;;4.05;2.83;;;;;;;11.39;63.10;100872.66;10259179;28;20515;-74
2023/05/19 00:14:16;;;;;;;3.33;2.75;;;;;;;11.12;64.17;100868.84;10259611;28;20083;-73
2023/05/19 00:19:18;;;;;;;4.70;2.97;;;;;;;11.05;65.51;100861.97;10260051;29;20073;-72
2023/05/19 00:24:20;;;;;;;3.20;2.22;;;;;;;11.16;65.21;100860.00;10260669;28;20130;-72
2023/05/19 00:29:21;;;;;;;3.67;2.60;;;;;;;10.88;66.88;100857.03;10258338;29;20075;-72
2023/05/19 00:34:23;;;;;;;4.30;2.65;;;;;;;10.69;67.25;100850.41;10259045;28;20086;-74
2023/05/19 00:39:25;;;;;;;4.20;2.33;;;;;;;10.74;66.08;100852.06;10242337;29;20047;-72
2023/05/19 00:44:30;;;;;;;3.35;2.15;;;;;;;10.80;64.88;100853.69;10257096;28;20070;-73
2023/05/19 00:49:32;;;;;;;2.97;2.40;;;;;;;10.75;65.46;100860.81;10241514;29;20047;-73
2023/05/19 00:54:34;;;;;;;3.92;2.30;;;;;;;10.81;64.68;100852.81;10241363;28;20105;-73
2023/05/19 00:59:36;;;;;;;4.32;2.63;;;;;;;10.67;65.23;100854.81;10257097;29;20047;-73
2023/05/19 01:04:40;;;;;;;3.90;2.58;;;;;;;10.52;65.53;100848.97;10256782;28;20044;-73
2023/05/19 01:09:42;;;;;;;3.80;2.00;;;;;;;10.50;65.86;100850.78;10256279;29;20051;-73
2023/05/19 01:14:47;;;;;;;2.55;2.22;;;;;;;10.74;67.21;100841.53;10256088;28;20098;-73
2023/05/19 01:20:09;;;;;;;4.93;2.75;;;;;;;10.68;67.09;100843.44;10257538;28;20069;-73
2023/05/19 01:25:19;;;;;;;3.15;2.33;;;;;;;10.48;67.15;100846.41;10257610;28;20050;-72
2023/05/19 01:30:39;;;;;;;3.65;2.33;;;;;;;10.33;67.53;100843.19;10257959;29;20055;-74
2023/05/19 01:35:42;;;;;;;2.88;2.22;;;;;;;10.17;68.19;100846.94;10258190;28;20462;-72
2023/05/19 01:40:46;;;;;;;4.97;2.85;;;;;;;9.97;69.52;100843.78;10240252;29;20143;-72
2023/05/19 01:45:57;;;;;;;4.85;2.95;;;;;;;9.78;71.18;100848.44;10255026;28;20094;-73
2023/05/19 01:51:03;;;;;;;4.90;2.70;;;;;;;9.58;72.80;100848.75;10257108;29;20098;-73
2023/05/19 01:56:07;;;;;;;3.78;2.70;;;;;;;9.78;72.25;100848.44;10238726;28;20412;-72
2023/05/19 02:01:49;;;;;;;5.43;2.78;;;;;;;9.68;71.72;100845.09;10255326;29;20146;-72
2023/05/19 02:07:00;;;;;;;3.85;2.47;;;;;;;9.65;73.12;100836.41;10255293;28;20532;-72
2023/05/19 02:12:11;;;;;;;4.55;2.50;;;;;;;9.57;73.29;100836.53;10240149;29;20074;-73
2023/05/19 02:17:15;;;;;;;6.25;3.42;;;;;;;9.24;75.01;100841.34;10255248;28;20119;-73
2023/05/19 02:22:17;;;;;;;5.82;2.85;;;;;;;9.23;76.34;100834.38;10254582;29;20527;-73
2023/05/19 02:27:21;;;;;;;3.15;2.58;;;;;;;9.34;76.06;100829.84;10254749;28;20093;-73
2023/05/19 02:32:22;;;;;;;4.80;2.65;;;;;;;9.25;76.44;100839.59;10255575;28;20453;-72
2023/05/19 02:37:27;;;;;;;4.80;3.10;;;;;;;9.33;75.99;100833.34;10256432;28;20109;-72
2023/05/19 02:42:30;;;;;;;3.30;2.57;;;;;;;9.43;75.01;100839.38;10254983;29;20575;-72
2023/05/19 02:47:32;;;;;;;3.20;2.22;;;;;;;9.30;76.46;100843.03;10238029;29;20039;-72
2023/05/19 02:52:37;;;;;;;2.85;2.50;;;;;;;9.23;76.88;100837.00;10237707;29;20138;-72
2023/05/19 02:57:41;;;;;;;4.82;2.83;;;;;;;9.16;77.60;100837.09;10253703;28;20047;-72
2023/05/19 03:02:43;;;;;;;5.05;2.70;;;;;;;9.02;79.72;100826.78;10253098;29;20110;-72
2023/05/19 03:07:45;;;;;;;3.65;2.15;;;;;;;9.03;79.38;100816.28;10255316;28;20058;-73
2023/05/19 03:12:47;;;;;;;2.35;2.08;;;;;;;8.99;80.15;100811.97;10238689;29;20409;-74
2023/05/19 03:17:49;;;;;;;4.32;2.53;;;;;;;9.42;78.70;100816.59;10238555;29;20102;-72
2023/05/19 03:22:50;;;;;;;4.60;2.65;;;;;;;9.31;77.83;100813.28;10255187;29;20047;-72
2023/05/19 03:27:52;;;;;;;5.15;2.25;;;;;;;9.20;77.96;100826.53;10252806;28;20039;-72
2023/05/19 03:32:54;;;;;;;4.10;2.67;;;;;;;8.79;81.07;100822.69;10236911;29;20393;-72
2023/05/19 03:37:56;;;;;;;3.92;2.45;;;;;;;8.63;82.64;100828.13;10254557;28;20070;-72
2023/05/19 03:42:59;;;;;;;3.78;2.33;;;;;;;8.69;82.10;100826.31;10236584;28;20535;-77
2023/05/19 03:48:02;;;;;;;4.55;2.58;;;;;;;9.30;78.69;100833.41;10247612;29;20098;-77
2023/05/19 03:53:22;;;;;;;4.07;2.40;;;;;;;8.99;79.75;100835.56;10264456;29;20079;-77
2023/05/19 03:58:25;;;;;;;4.90;2.05;;;;;;;8.85;81.29;100832.22;10263252;28;20122;-77
2023/05/19 04:03:27;;;;;;;3.72;2.25;;;;;;;8.88;80.61;100839.19;10262240;29;20082;-77
2023/05/19 04:08:29;;;;;;;3.10;2.30;;;;;;;9.05;80.05;100842.50;10262521;28;20481;-77
2023/05/19 04:13:34;;;;;;;3.58;2.53;;;;;;;8.95;79.50;100838.25;10245388;28;20102;-77
2023/05/19 04:18:36;;;;;;;4.22;2.40;;;;;;;9.19;78.71;100843.16;10245908;29;20075;-77
2023/05/19 04:23:38;;;;;;;3.45;2.50;;;;;;;9.28;78.82;100839.56;10262643;28;20075;-77
2023/05/19 04:28:41;;;;;;;3.65;2.80;;;;;;;9.12;78.93;100835.38;10262341;29;20043;-79
2023/05/19 04:33:43;;;;;;;2.92;2.40;;;;;;;9.09;79.36;100837.19;10243826;28;20128;-77
2023/05/19 04:38:45;;;;;;;3.97;2.88;;;;;;;9.10;79.08;100836.28;10259783;29;20070;-77
2023/05/19 04:43:48;;;;;;;6.72;2.80;;;;;;;9.31;79.33;100835.13;10244544;28;20081;-77
2023/05/19 04:48:55;;;;;;;5.90;5.32;;;;;;;9.35;79.12;100835.97;10244744;29;20043;-77
2023/05/19 04:53:58;;;;;;;3.28;2.40;;;;;;;9.49;78.58;100836.63;10263348;28;20445;-77
2023/05/19 04:59:00;;;;;;;3.95;2.80;;;;;;;9.85;77.24;100839.59;10243796;29;20118;-77
2023/05/19 05:04:02;;;;;;;4.85;2.78;;;;;;;9.76;77.79;100837.97;10243891;28;20047;-77
2023/05/19 05:09:04;;;;;;;5.22;2.40;;;;;;;9.98;76.56;100843.75;10243937;29;20111;-77
2023/05/19 05:14:08;;;;;;;6.65;2.70;;;;;;;9.83;77.65;100846.63;10258619;28;20425;-77
2023/05/19 05:19:10;;;;;;;4.32;2.60;;;;;;;9.68;78.69;100833.72;10259512;29;20409;-77
2023/05/19 05:24:13;;;;;;;4.82;2.45;;;;;;;9.97;77.04;100833.28;10257725;28;20410;-77
2023/05/19 05:29:19;;;;;;;3.53;2.33;;;;;;;10.21;76.74;100831.97;10259399;29;20047;-77
2023/05/19 05:34:22;;;;;;;5.03;2.63;;;;;;;10.37;73.97;100835.25;10243095;28;20051;-77
2023/05/19 05:39:24;;;;;;;3.53;2.28;;;;;;;10.45;74.07;100843.88;10261498;29;20043;-77
2023/05/19 05:44:26;;;;;;;4.82;2.55;;;;;;;10.61;74.68;100840.91;10240455;28;20047;-78
2023/05/19 05:49:30;;;;;;;4.93;2.35;;;;;;;10.62;72.52;100844.41;10256898;29;20065;-77
2023/05/19 05:54:32;;;;;;;3.25;2.17;;;;;;;10.72;72.28;100845.97;10240244;28;20548;-77
2023/05/19 05:59:34;;;;;;;3.75;2.58;;;;;;;10.80;71.96;100843.16;10255888;29;20455;-77
2023/05/19 06:04:36;;;;;;;4.68;2.72;;;;;;;11.20;69.98;100852.88;10239896;28;20102;-76
2023/05/19 06:09:40;;;;;;;3.72;2.55;;;;;;;11.35;70.38;100861.31;10255390;28;20536;-77
2023/05/19 06:14:43;;;;;;;2.67;2.28;;;;;;;11.37;69.69;100858.66;10256808;28;20495;-76
2023/05/19 06:20:26;;;;;;;4.50;2.50;;;;;;;11.36;69.56;100855.16;10215640;29;20051;-77
2023/05/19 06:25:29;;;;;;;4.60;2.83;;;;;;;11.33;70.79;100859.59;10199461;29;20417;-77
2023/05/19 06:30:32;;;;;;;4.57;2.40;;;;;;;11.84;69.56;100848.84;10214848;29;20055;-78
2023/05/19 06:35:54;;;;;;;3.72;2.45;;;;;;;12.51;68.13;100843.63;10200608;29;20111;-76
2023/05/19 06:40:56;;;;;;;4.45;2.25;;;;;;;12.98;66.27;100841.44;10198970;29;20052;-77
2023/05/19 06:45:57;;;;;;;3.35;1.92;;;;;;;13.34;64.48;100839.53;10198057;29;20052;-78
2023/05/19 06:51:00;;;;;;;5.72;2.45;;;;;;;13.25;63.86;100835.38;10245853;29;20083;-77
2023/05/19 06:56:01;;;;;;;2.88;2.30;;;;;;;13.78;62.88;100837.28;10240314;28;20074;-78
2023/05/19 07:01:07;;;;;;;5.85;2.97;;;;;;;13.62;62.01;100829.81;10255912;29;20074;-77
2023/05/19 07:06:16;;;;;;;4.72;2.40;;;;;;;14.31;59.96;100835.50;10225120;28;20099;-77
2023/05/19 07:11:18;;;;;;;5.35;2.30;;;;;;;14.88;57.67;100825.56;10240344;29;20055;-78
2023/05/19 07:16:21;;;;;;;3.70;2.78;;;;;;;15.30;53.45;100824.84;10238610;28;20047;-76
2023/05/19 07:21:23;;;;;;;3.40;2.60;;;;;;;15.18;54.83;100822.66;10260429;28;20051;-77
2023/05/19 07:26:25;;;;;;;3.30;2.38;;;;;;;14.87;54.76;100830.00;10230891;28;20075;-76
2023/05/19 07:31:27;;;;;;;2.47;2.28;;;;;;;14.75;54.75;100819.00;10247694;29;20130;-77
2023/05/19 07:36:30;;;;;;;7.03;2.58;;;;;;;14.76;55.47;100816.28;10263701;28;20087;-77
2023/05/19 07:41:31;;;;;;;4.70;2.30;;;;;;;15.31;53.94;100813.31;10247592;29;20051;-77
2023/05/19 07:46:36;;;;;;;2.92;2.17;;;;;;;15.56;53.08;100819.41;10264214;28;20094;-77
2023/05/19 07:51:40;;;;;;;4.32;2.60;;;;;;;15.48;52.67;100816.19;10264759;29;20044;-77
2023/05/19 07:56:42;;;;;;;5.63;2.25;;;;;;;15.73;52.13;100812.59;10262148;28;20043;-76
2023/05/19 08:01:44;;;;;;;3.00;2.10;;;;;;;16.02;50.70;100806.94;10262758;29;20055;-77
2023/05/19 08:06:46;;;;;;;2.58;2.10;;;;;;;15.77;50.95;100814.19;10247048;29;20094;-77
2023/05/19 08:11:48;;;;;;;3.80;2.10;;;;;;;16.63;50.29;100804.28;10263706;29;20461;-77
2023/05/19 08:16:50;;;;;;;4.18;1.85;;;;;;;16.96;48.61;100801.09;10247785;29;20047;-77
2023/05/19 08:21:52;;;;;;;2.08;1.70;;;;;;;16.83;48.03;100813.19;10264199;29;20051;-77
2023/05/19 08:26:54;;;;;;;3.83;1.90;;;;;;;16.58;48.54;100803.63;10261999;28;20039;-77
2023/05/19 08:31:57;;;;;;;3.20;1.90;;;;;;;16.19;49.34;100808.00;10258935;28;20138;-77
2023/05/19 08:36:59;;;;;;;2.30;2.03;;;;;;;16.41;50.50;100800.84;10257506;28;20039;-76
2023/05/19 08:42:01;;;;;;;5.00;2.38;;;;;;;17.18;49.05;100781.47;10260897;29;20074;-76
2023/05/19 08:47:04;;;;;;;2.67;1.90;;;;;;;17.54;47.81;100782.38;10259808;28;20512;-76
2023/05/19 08:52:14;;;;;;;4.22;2.05;;;;;;;17.56;47.20;100776.97;10259091;29;20047;-75
2023/05/19 08:57:16;;;;;;;7.00;3.47;;;;;;;17.78;48.67;100774.16;10260462;28;20070;-77
2023/05/19 09:02:18;;;;;;;3.30;2.05;;;;;;;16.80;48.77;100792.94;10226944;29;20527;-76
2023/05/19 09:07:24;;;;;;;4.30;2.92;;;;;;;17.20;51.44;100779.59;10258855;28;20043;-76
2023/05/19 09:12:27;;;;;;;3.45;2.92;;;;;;;17.54;48.47;100790.34;10260565;29;20421;-75
2023/05/19 09:17:28;;;;;;;3.85;2.50;;;;;;;17.62;47.98;100771.38;10258109;28;20423;-76
2023/05/19 09:22:34;;;;;;;14.07;4.40;;;;;;;17.69;49.52;100766.59;10258285;29;20051;-76
2023/05/19 09:27:36;;;;;;;20.67;9.00;;;;;;;17.69;47.45;100762.13;10240344;29;20131;-70
2023/05/19 09:32:38;;;;;;;3.47;2.28;;;;;;;16.96;47.39;100774.53;10257251;29;20047;-74
2023/05/19 09:37:40;;;;;;;3.58;1.73;;;;;;;17.13;46.77;100769.28;10224012;29;20097;-74
2023/05/19 09:42:47;;;;;;;2.17;1.60;;;;;;;17.85;46.80;100765.78;10256002;28;20135;-72
2023/05/19 09:47:49;;;;;;;;;;;;;;;17.49;45.19;100764.94;10356327;23;20421;-71
2023/05/19 09:52:51;;;;;;;3.53;1.83;;;;;;;17.90;45.20;100757.59;10458647;28;19947;-73
2023/05/19 09:57:56;;;;;;;2.60;1.65;;;;;;;17.68;44.88;100748.94;10458113;28;20072;-73
2023/05/19 10:02:59;;;;;;;4.15;2.20;;;;;;;17.68;44.96;100749.78;10439462;28;20053;-73
2023/05/19 10:08:05;;;;;;;2.38;1.73;;;;;;;18.05;44.10;100742.63;10457504;28;20037;-72
2023/05/19 10:13:08;;;;;;;2.80;2.00;;;;;;;18.67;44.75;100741.97;10457910;28;20037;-73
2023/05/19 10:18:10;;;;;;;3.00;2.45;;;;;;;18.39;44.06;100744.41;10456845;28;20434;-73
2023/05/19 10:23:12;;;;;;;3.45;2.47;;;;;;;18.29;44.41;100743.19;10457337;28;20110;-73
2023/05/19 10:28:19;;;;;;;4.93;2.05;;;;;;;18.39;44.61;100739.94;10457017;28;20041;-73
2023/05/19 10:33:50;;;;;;;3.78;2.42;;;;;;;18.00;46.02;100734.03;10438900;28;20053;-73
2023/05/19 10:39:05;;;;;;;3.25;2.13;;;;;;;18.55;44.91;100734.66;10446584;28;20071;-72
2023/05/19 10:44:31;;;;;;;2.42;1.95;;;;;;;18.67;46.00;100722.47;10457786;28;20072;-72
2023/05/19 10:49:34;;;;;;;;;;;;;;;19.22;43.09;100721.25;10456858;28;20033;-73
2023/05/19 10:54:42;;;;;;;2.83;2.17;;;;;;;19.34;42.23;100723.22;10459929;28;20405;-72
2023/05/19 10:59:44;;;;;;;2.58;1.98;;;;;;;19.55;41.94;100726.44;10465389;28;20071;-72
2023/05/19 11:04:57;;;;;;;6.32;2.17;;;;;;;19.48;43.82;100725.97;10464376;28;20052;-72
2023/05/19 11:10:04;;;;;;;2.58;1.73;;;;;;;19.75;43.17;100720.00;10464120;28;20041;-72
2023/05/19 11:15:09;;;;;;;3.00;2.03;;;;;;;20.52;42.05;100732.25;10464329;28;20056;-72
2023/05/19 11:20:24;;;;;;;2.67;2.10;;;;;;;20.16;42.11;100721.03;10463926;28;20041;-72
2023/05/19 11:25:46;;;;;;;5.32;2.05;;;;;;;19.52;43.23;100716.84;10446444;28;20068;-72
2023/05/19 11:30:51;;;;;;;2.78;2.00;;;;;;;18.98;45.15;100708.34;10445443;28;20045;-72
2023/05/19 11:35:56;;;;;;;5.70;2.43;;;;;;;19.66;43.87;100708.06;10463780;28;20071;-72
2023/05/19 11:40:59;;;;;;;4.32;2.00;;;;;;;19.60;42.85;100711.03;10463752;28;20041;-74
2023/05/19 11:46:01;;;;;;;4.53;1.50;;;;;;;19.08;44.16;100719.34;10463201;28;20149;-73
2023/05/19 11:51:05;;;;;;;3.88;2.28;;;;;;;18.61;45.51;100706.84;10464167;28;20045;-73
2023/05/19 11:56:06;;;;;;;2.65;1.60;;;;;;;18.45;46.14;100712.13;10462627;28;20095;-72
2023/05/19 12:01:09;;;;;;;3.75;1.60;;;;;;;18.32;46.58;100713.72;10464012;28;20075;-73
2023/05/19 12:06:12;;;;;;;2.88;1.70;;;;;;;18.66;46.34;100715.44;10463169;28;20129;-73
2023/05/19 12:11:14;;;;;;;2.60;1.42;;;;;;;18.43;46.49;100714.03;10464809;28;20380;-74
2023/05/19 12:16:21;;;;;;;3.78;1.38;;;;;;;18.14;47.31;100702.25;10463764;28;20037;-73
2023/05/19 12:21:23;;;;;;;4.18;1.50;;;;;;;18.15;47.67;100709.31;10464026;28;20037;-73
2023/05/19 12:26:36;;;;;;;5.30;1.77;;;;;;;18.59;46.65;100703.38;10463869;28;20478;-73
2023/05/19 12:31:38;;;;;;;3.25;1.70;;;;;;;19.16;46.14;100698.47;10463029;28;20052;-73
2023/05/19 12:36:40;;;;;;;2.30;1.45;;;;;;;19.33;45.61;100686.84;10462903;28;20132;-73
2023/05/19 12:41:44;;;;;;;1.50;1.40;;;;;;;18.91;46.35;100701.66;10463675;28;20192;-72
2023/05/19 12:46:46;;;;;;;3.03;1.45;;;;;;;18.41;47.40;100698.09;10444431;28;20045;-72
2023/05/19 12:51:52;;;;;;;2.10;1.60;;;;;;;18.41;47.11;100697.25;10462469;28;20494;-73
2023/05/19 12:56:56;;;;;;;3.67;1.63;;;;;;;18.52;46.40;100699.34;10461832;28;20051;-72
2023/05/19 13:01:58;;;;;;;5.07;1.83;;;;;;;18.38;47.00;100689.47;10460572;28;20116;-73
2023/05/19 13:07:00;;;;;;;3.78;1.73;;;;;;;18.41;46.92;100683.94;10459901;28;20041;-73
2023/05/19 13:12:03;;;;;;;2.88;2.05;;;;;;;18.34;48.10;100680.78;10460694;28;20441;-72
2023/05/19 13:17:05;;;;;;;3.47;2.00;;;;;;;18.11;48.26;100689.97;10458817;28;20399;-72
2023/05/19 13:22:07;;;;;;;2.40;1.90;;;;;;;17.90;47.82;100694.59;10460235;28;20040;-72
2023/05/19 13:27:08;;;;;;;3.40;2.15;;;;;;;17.90;48.75;100688.44;10459450;28;20449;-71
2023/05/19 13:32:10;;;;;;;3.58;2.50;;;;;;;18.08;49.53;100690.13;10458695;28;20529;-72
2023/05/19 13:37:12;;;;;;;3.03;2.83;;;;;;;18.17;48.75;100679.94;10458829;28;20091;-72
2023/05/19 13:42:16;;;;;;;4.30;2.63;;;;;;;17.88;48.54;100690.28;10458845;28;20051;-71
2023/05/19 13:47:18;;;;;;;2.92;2.33;;;;;;;17.73;49.33;100675.97;10456958;28;20486;-72
2023/05/19 13:52:20;;;;;;;3.90;2.45;;;;;;;17.79;50.34;100685.44;10457693;28;20076;-72
2023/05/19 14:02:55;;;;;;;3.67;2.72;;;;;;;17.63;50.63;100680.03;10455749;28;20064;-71
2023/05/19 14:07:59;;;;;;;3.13;2.50;;;;;;;17.53;51.34;100671.69;10455622;28;20037;-71
2023/05/19 14:13:01;;;;;;;4.65;2.75;;;;;;;17.67;51.64;100678.09;10457387;28;20072;-71
2023/05/19 14:18:06;;;;;;;3.78;2.58;;;;;;;17.51;51.78;100668.22;10458119;28;20051;-71
2023/05/19 14:23:08;;;;;;;4.13;3.00;;;;;;;17.08;53.56;100677.44;10457511;28;20095;-72
2023/05/19 14:28:09;;;;;;;6.75;2.92;;;;;;;17.21;54.00;100683.03;10457570;28;20037;-72
2023/05/19 14:33:11;;;;;;;4.43;3.30;;;;;;;17.22;53.78;100675.00;10457770;28;20084;-71
2023/05/19 14:38:13;;;;;;;3.03;2.40;;;;;;;17.42;54.69;100676.66;10458479;28;20103;-72
2023/05/19 14:43:15;;;;;;;3.35;2.70;;;;;;;17.38;52.61;100677.75;10457121;28;20441;-71
2023/05/19 14:48:17;;;;;;;3.17;2.75;;;;;;;17.26;53.55;100668.56;10455940;28;20150;-71
2023/05/19 14:53:19;;;;;;;2.72;2.53;;;;;;;17.46;53.46;100678.22;10456930;28;20049;-72
2023/05/19 14:58:21;;;;;;;4.47;3.13;;;;;;;17.05;54.37;100678.47;10457910;28;20454;-71
2023/05/19 15:03:29;;;;;;;3.30;3.00;;;;;;;16.84;54.72;100675.03;10439230;28;20416;-71
2023/05/19 15:08:31;;;;;;;3.72;3.25;;;;;;;16.88;54.76;100676.63;10456485;28;20037;-71
2023/05/19 15:13:33;;;;;;;3.08;2.78;;;;;;;16.74;55.64;100683.53;10455825;28;20048;-70
2023/05/19 15:18:36;;;;;;;4.18;2.63;;;;;;;16.57;56.57;100681.63;10456490;28;20116;-71
2023/05/19 15:23:38;;;;;;;5.55;3.40;;;;;;;16.47;56.83;100696.22;10456057;28;20079;-73
2023/05/19 15:28:40;;;;;;;3.80;2.97;;;;;;;16.31;56.76;100691.63;10438515;28;20045;-71
2023/05/19 15:33:42;;;;;;;4.82;3.08;;;;;;;16.33;57.78;100699.50;10456546;28;20041;-72
2023/05/19 15:38:44;;;;;;;4.85;4.10;;;;;;;16.36;58.19;100691.41;10438431;28;20494;-71
2023/05/19 15:43:46;;;;;;;4.68;4.28;;;;;;;16.33;58.09;100683.59;10463340;28;20494;-72
2023/05/19 15:48:48;;;;;;;4.25;3.38;;;;;;;16.48;58.74;100692.66;10461037;22;20517;-69
2023/05/19 15:53:50;;;;;;;6.10;3.45;;;;;;;16.30;57.85;100707.63;10409022;28;20077;-69
2023/05/19 15:58:52;;;;;;;4.97;3.45;;;;;;;16.04;58.63;100703.47;10429339;28;20041;-69
2023/05/19 16:03:54;;;;;;;4.20;3.78;;;;;;;16.04;58.94;100712.28;10426244;28;20045;-70
2023/05/19 16:08:56;;;;;;;5.15;4.40;;;;;;;16.08;59.29;100716.53;10410509;28;20045;-69
2023/05/19 16:13:58;;;;;;;5.97;4.65;;;;;;;15.86;60.23;100726.31;10408212;28;20045;-68
2023/05/19 16:19:03;;;;;;;3.78;3.47;;;;;;;15.82;60.31;100724.72;10426438;28;20518;-69
2023/05/19 16:24:05;;;;;;;4.57;3.83;;;;;;;15.72;60.50;100726.91;10406850;28;20510;-69
2023/05/19 16:29:07;;;;;;;4.65;3.72;;;;;;;15.71;60.76;100721.66;10424169;28;20038;-70
2023/05/19 16:34:09;;;;;;;4.63;3.97;;;;;;;15.57;59.94;100727.50;10415324;28;20044;-70
2023/05/19 16:39:11;;;;;;;3.63;3.33;;;;;;;15.37;59.89;100728.34;10464261;28;20079;-74
2023/05/19 16:44:13;;;;;;;4.95;3.00;;;;;;;15.29;60.11;100728.63;10467728;28;20521;-70
2023/05/19 16:49:15;;;;;;;3.97;3.40;;;;;;;15.15;60.57;100738.94;10464589;28;20041;-71
2023/05/19 16:54:17;;;;;;;3.53;3.00;;;;;;;15.25;61.37;100739.41;10464511;28;20045;-71
2023/05/19 16:59:19;;;;;;;3.55;3.25;;;;;;;15.39;60.47;100737.94;10463520;28;20124;-71
2023/05/19 17:04:21;;;;;;;3.90;3.50;;;;;;;15.06;61.27;100731.34;10465502;28;20045;-70
2023/05/19 17:09:25;;;;;;;3.65;3.20;;;;;;;14.95;63.04;100730.88;10464375;28;20047;-70
2023/05/19 17:14:27;;;;;;;4.95;3.33;;;;;;;14.93;62.72;100727.44;10445590;28;20045;-71
2023/05/19 17:19:29;;;;;;;4.55;2.97;;;;;;;15.04;62.40;100717.28;10463053;28;20044;-71
2023/05/19 17:24:32;;;;;;;3.53;3.22;;;;;;;14.91;62.98;100723.97;10465219;28;20502;-71
2023/05/19 17:29:33;;;;;;;7.20;3.47;;;;;;;14.79;63.71;100728.84;10465003;28;20041;-71
2023/05/19 17:34:38;;;;;;;3.70;3.35;;;;;;;14.83;63.38;100726.91;10463111;28;20052;-70
2023/05/19 17:39:40;;;;;;;3.65;3.28;;;;;;;14.66;64.04;100735.53;10445574;28;20037;-70
2023/05/19 17:44:42;;;;;;;3.45;2.95;;;;;;;14.71;64.21;100735.34;10464213;28;20041;-71
2023/05/19 17:49:44;;;;;;;3.72;3.05;;;;;;;14.60;64.83;100739.22;10467834;28;20064;-71
2023/05/19 17:54:46;;;;;;;4.40;3.17;;;;;;;14.53;65.19;100745.69;10448229;28;20045;-71
2023/05/19 17:59:48;;;;;;;3.35;3.05;;;;;;;14.63;65.15;100736.47;10464197;28;20037;-70
2023/05/19 18:04:51;;;;;;;3.53;3.22;;;;;;;14.64;65.05;100735.56;10461427;28;20041;-71
2023/05/19 18:09:55;;;;;;;4.55;3.55;;;;;;;14.43;65.95;100730.16;10462661;28;20116;-70
2023/05/19 18:14:56;;;;;;;4.15;3.75;;;;;;;14.49;65.74;100722.91;10460369;28;20099;-71
2023/05/19 18:19:58;;;;;;;3.95;3.50;;;;;;;14.41;66.82;100737.31;10442591;28;20045;-70
2023/05/19 18:25:07;;;;;;;4.97;3.70;;;;;;;14.36;66.68;100735.69;10462052;28;20051;-70
2023/05/19 18:30:09;;;;;;;5.57;4.35;;;;;;;14.38;67.17;100732.97;10434413;28;20064;-71
2023/05/19 18:35:11;;;;;;;4.20;3.80;;;;;;;14.36;67.81;100734.81;10419172;28;20046;-71
2023/05/19 18:40:13;;;;;;;6.30;3.95;;;;;;;14.52;66.93;100741.31;10420062;28;20061;-70
2023/05/19 18:45:15;;;;;;;5.53;4.53;;;;;;;14.45;67.05;100726.56;10402509;28;20049;-71
2023/05/19 18:50:16;;;;;;;5.15;4.55;;;;;;;14.26;67.72;100729.00;10419594;28;20037;-71
2023/05/19 18:55:18;;;;;;;5.03;4.53;;;;;;;14.27;67.93;100740.44;10401885;28;20049;-71
2023/05/19 19:00:20;;;;;;;5.80;4.88;;;;;;;14.24;68.59;100745.84;10400133;28;20557;-71
2023/05/19 19:05:22;;;;;;;5.18;4.68;;;;;;;14.28;69.14;100739.53;10419030;28;20103;-71
2023/05/19 19:10:23;;;;;;;5.53;5.07;;;;;;;14.33;68.48;100741.06;10417972;28;20041;-70
2023/05/19 19:15:27;;;;;;;6.93;5.20;;;;;;;14.26;68.54;100755.44;10422708;28;20046;-70
2023/05/19 19:20:28;;;;;;;6.07;5.50;;;;;;;14.10;69.18;100747.19;10427667;28;20487;-70
2023/05/19 19:25:31;;;;;;;6.60;6.03;;;;;;;14.03;70.08;100744.78;10427228;28;20084;-70
2023/05/19 19:30:33;;;;;;;6.53;5.85;;;;;;;14.12;69.81;100749.75;10426187;28;20042;-70
2023/05/19 19:35:35;;;;;;;7.40;6.80;;;;;;;13.96;70.97;100752.09;10427613;28;20041;-71
2023/05/19 19:40:37;;;;;;;7.22;6.30;;;;;;;13.93;71.39;100757.47;10425665;28;20041;-71
2023/05/19 19:45:40;;;;;;;7.95;7.25;;;;;;;14.05;70.85;100749.13;10424954;28;20046;-71
2023/05/19 19:50:42;;;;;;;8.98;8.18;;;;;;;13.92;71.81;100749.59;10425346;28;20434;-71
2023/05/19 19:55:43;;;;;;;9.90;9.10;;;;;;;13.95;71.84;100746.88;10426795;28;20045;-71
2023/05/19 20:00:45;;;;;;;9.38;8.43;;;;;;;13.94;72.03;100753.03;10430635;28;20042;-71
2023/05/19 20:05:47;;;;;;;8.82;8.13;;;;;;;13.84;72.61;100748.06;10427517;28;20064;-71
2023/05/19 20:10:49;;;;;;;9.60;8.80;;;;;;;13.61;73.17;100737.41;10427788;28;20402;-70
2023/05/19 20:15:51;;;;;;;10.05;9.25;;;;;;;13.67;73.34;100746.91;10425326;28;20049;-71
2023/05/19 20:20:53;;;;;;;9.57;8.75;;;;;;;13.57;73.61;100749.88;10407631;28;20052;-71
2023/05/19 20:25:55;;;;;;;10.23;9.32;;;;;;;13.50;74.21;100752.75;10406850;28;20072;-71
2023/05/19 20:31:13;;;;;;;9.82;8.98;;;;;;;13.47;74.54;100756.38;10424535;28;20045;-71
2023/05/19 20:36:15;;;;;;;9.20;8.50;;;;;;;13.46;74.75;100748.47;10406791;28;20053;-70
2023/05/19 20:41:16;;;;;;;10.48;9.68;;;;;;;13.48;74.98;100747.53;10409674;28;20050;-71
2023/05/19 20:46:18;;;;;;;11.25;10.25;;;;;;;13.38;75.68;100760.16;10423343;28;20128;-70
2023/05/19 20:51:21;;;;;;;9.68;8.80;;;;;;;13.44;75.39;100756.44;10423503;28;20124;-70
2023/05/19 20:56:22;;;;;;;10.45;9.68;;;;;;;13.40;76.08;100749.53;10422744;28;20069;-70
2023/05/19 21:01:25;;;;;;;10.05;9.15;;;;;;;13.39;76.65;100750.47;10422479;28;20078;-70
2023/05/19 21:06:26;;;;;;;12.43;11.23;;;;;;;13.47;76.11;100740.50;10423939;28;20478;-69
2023/05/19 21:11:28;;;;;;;11.45;10.43;;;;;;;13.37;76.15;100744.38;10405362;28;20033;-71
2023/05/19 21:16:30;;;;;;;11.73;10.73;;;;;;;13.44;76.14;100745.88;10421294;28;20038;-69
2023/05/19 21:21:32;;;;;;;12.32;11.10;;;;;;;13.35;76.97;100735.63;10430631;28;20041;-71
2023/05/19 21:26:34;;;;;;;11.95;10.95;;;;;;;13.37;75.95;100745.25;10427165;28;20132;-70
2023/05/19 21:31:36;;;;;;;11.20;10.40;;;;;;;13.14;77.12;100753.81;10421120;28;20108;-70
2023/05/19 21:36:38;;;;;;;11.30;10.40;;;;;;;13.24;77.25;100750.97;10419853;28;20064;-71
2023/05/19 21:41:40;;;;;;;10.57;9.68;;;;;;;13.38;76.56;100749.59;10420034;28;20063;-70
2023/05/19 21:52:08;;;;;;;11.38;10.38;;;;;;;13.26;77.44;100751.75;10215923;29;20048;-72
2023/05/19 21:57:11;;;;;;;10.55;9.75;;;;;;;13.08;78.90;100748.75;10245558;29;20047;-72
2023/05/19 22:02:13;;;;;;;11.27;10.38;;;;;;;13.25;77.74;100747.41;10256608;28;20047;-72
2023/05/19 22:07:15;;;;;;;10.93;10.15;;;;;;;13.20;78.03;100739.59;10270718;28;20081;-72
2023/05/19 22:12:17;;;;;;;11.55;10.50;;;;;;;13.10;78.29;100743.41;10256066;29;20044;-72
2023/05/19 22:17:18;;;;;;;11.10;10.20;;;;;;;13.28;77.54;100745.53;10255593;29;20047;-72
2023/05/19 22:22:20;;;;;;;11.07;10.27;;;;;;;13.24;78.00;100745.69;10255369;28;20066;-72
2023/05/19 22:27:22;;;;;;;10.93;10.10;;;;;;;13.08;78.96;100747.88;10254839;29;20075;-71
2023/05/19 22:32:24;;;;;;;11.20;10.40;;;;;;;13.27;77.99;100746.41;10270141;28;20051;-72
2023/05/19 22:37:27;;;;;;;11.52;10.73;;;;;;;13.35;77.94;100744.41;10286199;28;20069;-72
2023/05/19 22:42:29;;;;;;;11.30;10.57;;;;;;;13.25;78.14;100737.69;10254727;28;20552;-73
2023/05/19 22:47:31;;;;;;;10.88;9.98;;;;;;;13.19;78.70;100735.19;10269145;28;20136;-72
2023/05/19 22:52:32;;;;;;;11.60;10.73;;;;;;;13.23;79.00;100739.50;10252677;29;20051;-72
2023/05/19 22:57:34;;;;;;;11.57;10.68;;;;;;;13.19;78.82;100724.63;10254578;29;20098;-72
2023/05/19 23:02:36;;;;;;;12.02;11.13;;;;;;;13.21;78.84;100724.63;10285249;28;20058;-72
2023/05/19 23:07:38;;;;;;;11.95;11.05;;;;;;;13.05;79.77;100722.44;10253928;29;20043;-73
2023/05/19 23:12:40;;;;;;;13.07;11.98;;;;;;;12.98;80.51;100718.28;10252818;28;20152;-73
2023/05/19 23:17:41;;;;;;;12.23;11.43;;;;;;;13.13;80.63;100725.72;10253754;28;20039;-72
2023/05/19 23:22:43;;;;;;;13.57;12.57;;;;;;;13.07;80.76;100730.31;10254091;29;20055;-73
2023/05/19 23:27:45;;;;;;;12.90;12.00;;;;;;;13.01;81.21;100726.06;10253899;28;20054;-73